ANZ873 YSSY-NZWN
Flight info
| Callsign | ANZ873 |
|---|---|
| Flight time | N/A |
| Altitude | 37000 |
| Route | CAWLY M636 SASRO/N0473F390 M636 TANEN DCT SIMZI |
| Aircraft | B77W/H-SDE1E2E3FGHIJ2J3J4J5M1RWXY/LB1D1 |
Departure
| Time | 2026-04-25 04:41 |
|---|---|
| Airport | Sydney Kingsford Smith International Airport (YSSY) |
Arrival
| Time | N/A |
|---|---|
| Airport | Wellington International Airport (NZWN) |
| Time | Latitude | Longitude | Altitude | Speed | Heading |
|---|---|---|---|---|---|
| 2026-04-25 04:18 | -33.93893 | 151.16855 | 31 ft | 0 kts | 74° |
| 2026-04-25 04:28 | -33.93895 | 151.16847 | 31 ft | 2 kts | 74° |
| 2026-04-25 04:29 | -33.93899 | 151.16830 | 31 ft | 2 kts | 74° |
| 2026-04-25 04:29 | -33.93903 | 151.16812 | 31 ft | 2 kts | 80° |
| 2026-04-25 04:29 | -33.93903 | 151.16794 | 31 ft | 2 kts | 103° |
| 2026-04-25 04:29 | -33.93898 | 151.16777 | 31 ft | 2 kts | 121° |
| 2026-04-25 04:30 | -33.93889 | 151.16763 | 31 ft | 2 kts | 138° |
| 2026-04-25 04:30 | -33.93877 | 151.16753 | 31 ft | 2 kts | 156° |
| 2026-04-25 04:30 | -33.93869 | 151.16750 | 31 ft | 1 kts | 165° |
| 2026-04-25 04:30 | -33.93867 | 151.16750 | 31 ft | 0 kts | 164° |
| 2026-04-25 04:32 | -33.93868 | 151.16750 | 31 ft | 2 kts | 164° |
| 2026-04-25 04:33 | -33.93980 | 151.16788 | 31 ft | 26 kts | 164° |
| 2026-04-25 04:33 | -33.94154 | 151.16841 | 31 ft | 24 kts | 167° |
| 2026-04-25 04:33 | -33.94316 | 151.16884 | 30 ft | 23 kts | 165° |
| 2026-04-25 04:33 | -33.94399 | 151.16998 | 31 ft | 20 kts | 78° |
| 2026-04-25 04:34 | -33.94367 | 151.17154 | 31 ft | 17 kts | 76° |
| 2026-04-25 04:34 | -33.94357 | 151.17194 | 31 ft | 0 kts | 72° |
| 2026-04-25 04:34 | -33.94343 | 151.17250 | 31 ft | 13 kts | 78° |
| 2026-04-25 04:34 | -33.94439 | 151.17343 | 31 ft | 26 kts | 167° |
| 2026-04-25 04:35 | -33.94621 | 151.17394 | 31 ft | 25 kts | 167° |
| 2026-04-25 04:35 | -33.94790 | 151.17439 | 31 ft | 24 kts | 167° |
| 2026-04-25 04:35 | -33.94952 | 151.17477 | 31 ft | 22 kts | 167° |
| 2026-04-25 04:35 | -33.95102 | 151.17517 | 31 ft | 21 kts | 167° |
| 2026-04-25 04:36 | -33.95238 | 151.17563 | 31 ft | 18 kts | 139° |
| 2026-04-25 04:36 | -33.95256 | 151.17604 | 31 ft | 0 kts | 95° |
| 2026-04-25 04:37 | -33.95257 | 151.17609 | 31 ft | 4 kts | 94° |
| 2026-04-25 04:38 | -33.95242 | 151.17740 | 31 ft | 26 kts | 78° |
| 2026-04-25 04:38 | -33.95203 | 151.17958 | 31 ft | 25 kts | 78° |
| 2026-04-25 04:38 | -33.95167 | 151.18162 | 31 ft | 23 kts | 78° |
| 2026-04-25 04:38 | -33.95132 | 151.18350 | 31 ft | 21 kts | 78° |
| 2026-04-25 04:39 | -33.95075 | 151.18500 | 31 ft | 19 kts | 29° |
| 2026-04-25 04:39 | -33.95010 | 151.18622 | 31 ft | 17 kts | 78° |
| 2026-04-25 04:39 | -33.95000 | 151.18675 | 31 ft | 0 kts | 78° |
| 2026-04-25 04:39 | -33.94996 | 151.18701 | 31 ft | 11 kts | 79° |
| 2026-04-25 04:40 | -33.95031 | 151.18840 | 31 ft | 29 kts | 159° |
| 2026-04-25 04:40 | -33.95468 | 151.18964 | 31 ft | 101 kts | 167° |
| 2026-04-25 04:40 | -33.96384 | 151.19200 | 33 ft | 163 kts | 166° |
| 2026-04-25 04:40 | -33.97561 | 151.19492 | 528 ft | 174 kts | 166° |
| 2026-04-25 04:41 | -33.98755 | 151.19788 | 1302 ft | 174 kts | 164° |
| 2026-04-25 04:41 | -33.99869 | 151.20436 | 1610 ft | 188 kts | 137° |
| 2026-04-25 04:41 | -34.00661 | 151.21758 | 1838 ft | 206 kts | 108° |
| 2026-04-25 04:41 | -34.01080 | 151.23526 | 2147 ft | 230 kts | 108° |
| 2026-04-25 04:42 | -34.01952 | 151.25233 | 2628 ft | 249 kts | 128° |
| 2026-04-25 04:42 | -34.03172 | 151.26776 | 3224 ft | 263 kts | 135° |
| 2026-04-25 04:42 | -34.04580 | 151.28239 | 4020 ft | 267 kts | 139° |
| 2026-04-25 04:42 | -34.06010 | 151.29649 | 4857 ft | 269 kts | 140° |
| 2026-04-25 04:43 | -34.07473 | 151.31081 | 5655 ft | 271 kts | 140° |
| 2026-04-25 04:43 | -34.08933 | 151.32509 | 6440 ft | 274 kts | 140° |
| 2026-04-25 04:43 | -34.10412 | 151.33955 | 7261 ft | 275 kts | 140° |
| 2026-04-25 04:43 | -34.11909 | 151.35423 | 8034 ft | 277 kts | 140° |
| 2026-04-25 04:44 | -34.13337 | 151.37009 | 8775 ft | 279 kts | 126° |
| 2026-04-25 04:44 | -34.14266 | 151.39050 | 9494 ft | 280 kts | 113° |
| 2026-04-25 04:44 | -34.14997 | 151.41219 | 10242 ft | 283 kts | 111° |
| 2026-04-25 04:44 | -34.15727 | 151.43474 | 10659 ft | 298 kts | 111° |
| 2026-04-25 04:45 | -34.16512 | 151.45900 | 11032 ft | 316 kts | 111° |
| 2026-04-25 04:45 | -34.17620 | 151.49307 | 11595 ft | 337 kts | 111° |
| 2026-04-25 04:45 | -34.18190 | 151.51060 | 11901 ft | 347 kts | 111° |
| 2026-04-25 04:45 | -34.19098 | 151.53854 | 12390 ft | 363 kts | 111° |
| 2026-04-25 04:46 | -34.20044 | 151.56772 | 12916 ft | 378 kts | 111° |
| 2026-04-25 04:46 | -34.21012 | 151.59758 | 13557 ft | 390 kts | 111° |
| 2026-04-25 04:46 | -34.22015 | 151.62852 | 14493 ft | 395 kts | 111° |
| 2026-04-25 04:46 | -34.23012 | 151.65933 | 15561 ft | 398 kts | 111° |
| 2026-04-25 04:47 | -34.24014 | 151.69032 | 16606 ft | 402 kts | 111° |
| 2026-04-25 04:47 | -34.25043 | 151.72218 | 17609 ft | 407 kts | 111° |
| 2026-04-25 04:47 | -34.26065 | 151.75386 | 18584 ft | 411 kts | 111° |
| 2026-04-25 04:47 | -34.27114 | 151.78641 | 19545 ft | 416 kts | 111° |
| 2026-04-25 04:48 | -34.28162 | 151.81897 | 20457 ft | 421 kts | 111° |
| 2026-04-25 04:48 | -34.29225 | 151.85200 | 21393 ft | 425 kts | 111° |
| 2026-04-25 04:48 | -34.30306 | 151.88567 | 22340 ft | 428 kts | 111° |
| 2026-04-25 04:48 | -34.31382 | 151.91917 | 23211 ft | 433 kts | 111° |
| 2026-04-25 04:49 | -34.32524 | 151.95351 | 24029 ft | 437 kts | 115° |
| 2026-04-25 04:49 | -34.33964 | 151.98592 | 24799 ft | 442 kts | 120° |
| 2026-04-25 04:49 | -34.35523 | 152.01791 | 25532 ft | 447 kts | 120° |
| 2026-04-25 04:49 | -34.37130 | 152.05078 | 26266 ft | 452 kts | 121° |
| 2026-04-25 04:50 | -34.38732 | 152.08363 | 26983 ft | 457 kts | 121° |
| 2026-04-25 04:50 | -34.40373 | 152.11734 | 27710 ft | 462 kts | 121° |
| 2026-04-25 04:50 | -34.42007 | 152.15096 | 28271 ft | 468 kts | 121° |
| 2026-04-25 04:51 | -34.45332 | 152.21950 | 28365 ft | 468 kts | 121° |
| 2026-04-25 04:51 | -34.48606 | 152.28716 | 28366 ft | 468 kts | 121° |
| 2026-04-25 04:52 | -34.51937 | 152.35614 | 28634 ft | 479 kts | 121° |
| 2026-04-25 04:52 | -34.53610 | 152.39082 | 29492 ft | 479 kts | 121° |
| 2026-04-25 04:52 | -34.55297 | 152.42587 | 30566 ft | 474 kts | 121° |
| 2026-04-25 04:52 | -34.56938 | 152.45999 | 31587 ft | 469 kts | 121° |
| 2026-04-25 04:53 | -34.58568 | 152.49391 | 32415 ft | 467 kts | 122° |
| 2026-04-25 04:53 | -34.60206 | 152.52800 | 33110 ft | 466 kts | 122° |
| 2026-04-25 04:53 | -34.61827 | 152.56181 | 33766 ft | 466 kts | 122° |
| 2026-04-25 04:53 | -34.63470 | 152.59610 | 34457 ft | 465 kts | 122° |
| 2026-04-25 04:54 | -34.65085 | 152.62984 | 35201 ft | 463 kts | 122° |
| 2026-04-25 04:54 | -34.66707 | 152.66371 | 35366 ft | 466 kts | 121° |
| 2026-04-25 04:54 | -34.68321 | 152.69751 | 35367 ft | 462 kts | 122° |
| 2026-04-25 04:55 | -34.71555 | 152.76529 | 35374 ft | 459 kts | 121° |
| 2026-04-25 04:55 | -34.74779 | 152.83299 | 35376 ft | 460 kts | 122° |
| 2026-04-25 04:56 | -34.78014 | 152.90105 | 35377 ft | 459 kts | 122° |
| 2026-04-25 04:56 | -34.81247 | 152.96921 | 35373 ft | 454 kts | 122° |
| 2026-04-25 04:57 | -34.84415 | 153.03610 | 35369 ft | 456 kts | 121° |
| 2026-04-25 04:57 | -34.87578 | 153.10306 | 35367 ft | 455 kts | 122° |
| 2026-04-25 04:58 | -34.90727 | 153.16983 | 35366 ft | 456 kts | 122° |
| 2026-04-25 04:58 | -34.93879 | 153.23679 | 35364 ft | 455 kts | 121° |
| 2026-04-25 04:59 | -34.97043 | 153.30414 | 35367 ft | 454 kts | 121° |
| 2026-04-25 04:59 | -35.00144 | 153.37028 | 35371 ft | 445 kts | 121° |
| 2026-04-25 05:00 | -35.03239 | 153.43642 | 35375 ft | 446 kts | 122° |
| 2026-04-25 05:00 | -35.06311 | 153.50218 | 35374 ft | 447 kts | 121° |
| 2026-04-25 05:01 | -35.09385 | 153.56812 | 35376 ft | 447 kts | 121° |
| 2026-04-25 05:01 | -35.12451 | 153.63402 | 35380 ft | 446 kts | 121° |
| 2026-04-25 05:02 | -35.15511 | 153.69991 | 35387 ft | 446 kts | 121° |
| 2026-04-25 05:02 | -35.18577 | 153.76604 | 35385 ft | 447 kts | 121° |
| 2026-04-25 05:03 | -35.21619 | 153.83180 | 35387 ft | 445 kts | 121° |
| 2026-04-25 05:03 | -35.24686 | 153.89822 | 35385 ft | 448 kts | 121° |
| 2026-04-25 05:04 | -35.27727 | 153.96420 | 35387 ft | 444 kts | 121° |
| 2026-04-25 05:04 | -35.30769 | 154.03032 | 35386 ft | 446 kts | 121° |
| 2026-04-25 05:05 | -35.33832 | 154.09706 | 35387 ft | 445 kts | 121° |
| 2026-04-25 05:05 | -35.36850 | 154.16293 | 35386 ft | 445 kts | 121° |
| 2026-04-25 05:06 | -35.39889 | 154.22939 | 35385 ft | 445 kts | 121° |
| 2026-04-25 05:06 | -35.42899 | 154.29533 | 35387 ft | 445 kts | 121° |
| 2026-04-25 05:07 | -35.45933 | 154.36194 | 35387 ft | 445 kts | 121° |
| 2026-04-25 05:07 | -35.48953 | 154.42836 | 35390 ft | 445 kts | 121° |
| 2026-04-25 05:08 | -35.51959 | 154.49461 | 35390 ft | 444 kts | 121° |
| 2026-04-25 05:08 | -35.54981 | 154.56136 | 35393 ft | 444 kts | 121° |
| 2026-04-25 05:09 | -35.57973 | 154.62756 | 35394 ft | 444 kts | 121° |
| 2026-04-25 05:09 | -35.60982 | 154.69428 | 35400 ft | 445 kts | 120° |
| 2026-04-25 05:10 | -35.63767 | 154.76210 | 35400 ft | 445 kts | 118° |
| 2026-04-25 05:10 | -35.66526 | 154.83054 | 35403 ft | 445 kts | 118° |
| 2026-04-25 05:11 | -35.69282 | 154.89879 | 35403 ft | 444 kts | 118° |
| 2026-04-25 05:11 | -35.72034 | 154.96695 | 35405 ft | 444 kts | 118° |
| 2026-04-25 05:12 | -35.76158 | 155.06920 | 35403 ft | 445 kts | 118° |
| 2026-04-25 05:12 | -35.78891 | 155.13710 | 35403 ft | 444 kts | 118° |
| 2026-04-25 05:13 | -35.81633 | 155.20537 | 35403 ft | 443 kts | 118° |
| 2026-04-25 05:13 | -35.84371 | 155.27368 | 35404 ft | 443 kts | 118° |
| 2026-04-25 05:14 | -35.87100 | 155.34189 | 35408 ft | 443 kts | 118° |
| 2026-04-25 05:15 | -35.91187 | 155.44434 | 35409 ft | 444 kts | 118° |
| 2026-04-25 05:15 | -35.93911 | 155.51277 | 35412 ft | 443 kts | 118° |
| 2026-04-25 05:16 | -35.96631 | 155.58127 | 35411 ft | 444 kts | 118° |
| 2026-04-25 05:16 | -35.99323 | 155.64922 | 35413 ft | 441 kts | 118° |
| 2026-04-25 05:17 | -36.02034 | 155.71776 | 35412 ft | 443 kts | 117° |
| 2026-04-25 05:17 | -36.04732 | 155.78613 | 35412 ft | 444 kts | 117° |
| 2026-04-25 05:18 | -36.07439 | 155.85489 | 35419 ft | 442 kts | 117° |
| 2026-04-25 05:18 | -36.10116 | 155.92302 | 35412 ft | 443 kts | 117° |
| 2026-04-25 05:19 | -36.13257 | 156.00314 | 35413 ft | 441 kts | 117° |
| 2026-04-25 05:19 | -36.15478 | 156.05991 | 35406 ft | 442 kts | 117° |